sensor_id;sensor_type;location;lat;lon;timestamp;pressure;altitude;pressure_sealevel;temperature;humidity
40940;BME280;26666;50.156;7.700;2022-12-10T00:00:53;99536.59;;;3.10;93.98
40940;BME280;26666;50.156;7.700;2022-12-10T00:05:59;99546.84;;;3.01;94.54
40940;BME280;26666;50.156;7.700;2022-12-10T00:11:06;99558.75;;;3.18;96.34
40940;BME280;26666;50.156;7.700;2022-12-10T00:16:10;99558.00;;;3.28;92.54
40940;BME280;26666;50.156;7.700;2022-12-10T00:21:15;99555.63;;;3.25;90.09
40940;BME280;26666;50.156;7.700;2022-12-10T00:26:19;99543.59;;;3.35;91.69
40940;BME280;26666;50.156;7.700;2022-12-10T00:31:24;99558.44;;;3.22;90.01
40940;BME280;26666;50.156;7.700;2022-12-10T00:36:29;99556.97;;;3.18;91.84
40940;BME280;26666;50.156;7.700;2022-12-10T00:41:31;99557.16;;;3.15;91.40
40940;BME280;26666;50.156;7.700;2022-12-10T00:46:33;99549.84;;;3.07;90.34
40940;BME280;26666;50.156;7.700;2022-12-10T00:51:34;99550.59;;;3.22;90.38
40940;BME280;26666;50.156;7.700;2022-12-10T00:56:36;99555.50;;;3.14;89.98
40940;BME280;26666;50.156;7.700;2022-12-10T01:01:40;99551.22;;;3.13;90.73
40940;BME280;26666;50.156;7.700;2022-12-10T01:06:46;99562.50;;;3.26;90.05
40940;BME280;26666;50.156;7.700;2022-12-10T01:11:50;99571.19;;;3.14;89.04
40940;BME280;26666;50.156;7.700;2022-12-10T01:17:00;99571.72;;;3.19;89.58
40940;BME280;26666;50.156;7.700;2022-12-10T01:22:03;99571.97;;;2.89;87.64
40940;BME280;26666;50.156;7.700;2022-12-10T01:27:05;99581.06;;;2.96;88.28
40940;BME280;26666;50.156;7.700;2022-12-10T01:32:07;99594.78;;;3.25;89.03
40940;BME280;26666;50.156;7.700;2022-12-10T01:37:08;99590.78;;;3.07;88.58
40940;BME280;26666;50.156;7.700;2022-12-10T01:42:12;99596.88;;;2.80;88.09
40940;BME280;26666;50.156;7.700;2022-12-10T01:47:14;99600.16;;;2.96;86.13
40940;BME280;26666;50.156;7.700;2022-12-10T01:52:16;99606.06;;;2.86;87.35
40940;BME280;26666;50.156;7.700;2022-12-10T01:57:23;99609.56;;;2.99;88.47
40940;BME280;26666;50.156;7.700;2022-12-10T02:02:38;99602.56;;;3.00;88.73
40940;BME280;26666;50.156;7.700;2022-12-10T02:13:11;99598.66;;;2.80;91.07
40940;BME280;26666;50.156;7.700;2022-12-10T02:18:28;99604.28;;;2.73;89.49
40940;BME280;26666;50.156;7.700;2022-12-10T02:23:54;99602.22;;;2.79;90.63
40940;BME280;26666;50.156;7.700;2022-12-10T02:29:23;99601.84;;;2.58;91.33
40940;BME280;26666;50.156;7.700;2022-12-10T02:34:29;99598.81;;;2.64;91.61
40940;BME280;26666;50.156;7.700;2022-12-10T02:39:35;99591.91;;;2.50;92.17
40940;BME280;26666;50.156;7.700;2022-12-10T02:44:38;99596.28;;;2.49;92.43
40940;BME280;26666;50.156;7.700;2022-12-10T02:49:42;99592.81;;;2.49;91.96
40940;BME280;26666;50.156;7.700;2022-12-10T02:54:47;99597.28;;;2.47;91.23
40940;BME280;26666;50.156;7.700;2022-12-10T03:00:09;99593.69;;;2.62;91.43
40940;BME280;26666;50.156;7.700;2022-12-10T03:05:23;99598.81;;;2.64;92.22
40940;BME280;26666;50.156;7.700;2022-12-10T03:10:51;99595.97;;;2.54;92.02
40940;BME280;26666;50.156;7.700;2022-12-10T03:15:53;99600.38;;;2.53;91.95
40940;BME280;26666;50.156;7.700;2022-12-10T03:20:58;99598.09;;;2.62;92.69
40940;BME280;26666;50.156;7.700;2022-12-10T03:26:03;99596.63;;;2.70;92.80
40940;BME280;26666;50.156;7.700;2022-12-10T03:31:06;99602.50;;;2.74;91.01
40940;BME280;26666;50.156;7.700;2022-12-10T03:36:09;99593.78;;;2.61;91.08
40940;BME280;26666;50.156;7.700;2022-12-10T03:41:11;99592.53;;;2.53;92.51
40940;BME280;26666;50.156;7.700;2022-12-10T03:46:12;99587.59;;;2.49;90.74
40940;BME280;26666;50.156;7.700;2022-12-10T03:51:14;99586.63;;;2.37;91.32
40940;BME280;26666;50.156;7.700;2022-12-10T03:56:17;99589.28;;;2.23;90.78
40940;BME280;26666;50.156;7.700;2022-12-10T04:01:18;99591.63;;;2.13;91.93
40940;BME280;26666;50.156;7.700;2022-12-10T04:06:20;99592.66;;;2.10;92.26
40940;BME280;26666;50.156;7.700;2022-12-10T04:11:22;99585.94;;;2.06;91.95
40940;BME280;26666;50.156;7.700;2022-12-10T04:16:25;99603.44;;;2.04;92.04
40940;BME280;26666;50.156;7.700;2022-12-10T04:21:28;99606.03;;;2.04;93.48
40940;BME280;26666;50.156;7.700;2022-12-10T04:26:29;99598.75;;;2.24;91.08
40940;BME280;26666;50.156;7.700;2022-12-10T04:31:31;99609.94;;;2.26;90.85
40940;BME280;26666;50.156;7.700;2022-12-10T04:36:32;99620.47;;;2.24;90.06
40940;BME280;26666;50.156;7.700;2022-12-10T04:41:34;99627.72;;;2.19;90.62
40940;BME280;26666;50.156;7.700;2022-12-10T04:46:35;99622.59;;;2.32;89.94
40940;BME280;26666;50.156;7.700;2022-12-10T04:51:37;99625.84;;;2.35;90.96
40940;BME280;26666;50.156;7.700;2022-12-10T04:56:39;99631.09;;;2.48;89.57
40940;BME280;26666;50.156;7.700;2022-12-10T05:01:41;99638.88;;;2.35;87.89
40940;BME280;26666;50.156;7.700;2022-12-10T05:06:43;99633.84;;;2.32;87.83
40940;BME280;26666;50.156;7.700;2022-12-10T05:11:45;99639.53;;;2.25;88.09
40940;BME280;26666;50.156;7.700;2022-12-10T05:16:49;99645.41;;;2.14;88.10
40940;BME280;26666;50.156;7.700;2022-12-10T05:21:50;99641.56;;;2.34;89.02
40940;BME280;26666;50.156;7.700;2022-12-10T05:26:52;99643.97;;;2.37;87.97
40940;BME280;26666;50.156;7.700;2022-12-10T05:31:53;99647.53;;;2.36;88.92
40940;BME280;26666;50.156;7.700;2022-12-10T05:36:55;99645.88;;;2.21;88.37
40940;BME280;26666;50.156;7.700;2022-12-10T05:41:57;99646.66;;;2.50;90.09
40940;BME280;26666;50.156;7.700;2022-12-10T05:46:58;99653.34;;;2.54;89.42
40940;BME280;26666;50.156;7.700;2022-12-10T05:52:00;99651.00;;;2.64;90.19
40940;BME280;26666;50.156;7.700;2022-12-10T05:57:01;99653.94;;;2.72;89.27
40940;BME280;26666;50.156;7.700;2022-12-10T06:02:03;99665.59;;;2.66;89.56
40940;BME280;26666;50.156;7.700;2022-12-10T06:07:04;99659.47;;;2.53;89.46
40940;BME280;26666;50.156;7.700;2022-12-10T06:12:11;99670.72;;;2.68;89.05
40940;BME280;26666;50.156;7.700;2022-12-10T06:17:13;99674.88;;;2.43;89.02
40940;BME280;26666;50.156;7.700;2022-12-10T06:22:14;99668.81;;;2.43;88.87
40940;BME280;26666;50.156;7.700;2022-12-10T06:27:16;99675.00;;;2.42;89.22
40940;BME280;26666;50.156;7.700;2022-12-10T06:32:17;99676.22;;;2.36;88.90
40940;BME280;26666;50.156;7.700;2022-12-10T06:37:19;99675.38;;;2.35;90.59
40940;BME280;26666;50.156;7.700;2022-12-10T06:42:21;99689.41;;;2.47;90.52
40940;BME280;26666;50.156;7.700;2022-12-10T06:47:23;99692.28;;;2.43;90.02
40940;BME280;26666;50.156;7.700;2022-12-10T06:52:26;99702.34;;;2.49;90.43
40940;BME280;26666;50.156;7.700;2022-12-10T06:57:28;99709.91;;;2.39;89.36
40940;BME280;26666;50.156;7.700;2022-12-10T07:02:29;99710.06;;;2.50;88.97
40940;BME280;26666;50.156;7.700;2022-12-10T07:07:31;99715.03;;;2.41;88.38
40940;BME280;26666;50.156;7.700;2022-12-10T07:12:33;99722.47;;;2.32;89.31
40940;BME280;26666;50.156;7.700;2022-12-10T07:17:34;99725.00;;;2.20;89.46
40940;BME280;26666;50.156;7.700;2022-12-10T07:22:36;99729.91;;;2.10;89.96
40940;BME280;26666;50.156;7.700;2022-12-10T07:27:37;99738.31;;;2.15;91.23
40940;BME280;26666;50.156;7.700;2022-12-10T07:32:39;99738.94;;;2.04;92.26
40940;BME280;26666;50.156;7.700;2022-12-10T07:37:40;99733.94;;;2.01;92.74
40940;BME280;26666;50.156;7.700;2022-12-10T07:42:42;99743.81;;;2.10;92.35
40940;BME280;26666;50.156;7.700;2022-12-10T07:47:43;99739.88;;;2.03;92.36
40940;BME280;26666;50.156;7.700;2022-12-10T07:52:45;99748.81;;;1.99;92.72
40940;BME280;26666;50.156;7.700;2022-12-10T07:57:46;99740.81;;;1.88;92.97
40940;BME280;26666;50.156;7.700;2022-12-10T08:02:49;99751.00;;;1.76;93.06
40940;BME280;26666;50.156;7.700;2022-12-10T08:07:51;99747.13;;;1.98;93.42
40940;BME280;26666;50.156;7.700;2022-12-10T08:13:00;99753.75;;;2.04;93.22
40940;BME280;26666;50.156;7.700;2022-12-10T08:18:02;99760.38;;;1.95;94.39
40940;BME280;26666;50.156;7.700;2022-12-10T08:23:04;99757.59;;;2.12;94.18
40940;BME280;26666;50.156;7.700;2022-12-10T08:28:05;99764.91;;;2.06;94.54
40940;BME280;26666;50.156;7.700;2022-12-10T08:33:07;99776.75;;;1.97;94.08
40940;BME280;26666;50.156;7.700;2022-12-10T08:38:08;99766.09;;;1.71;95.55
40940;BME280;26666;50.156;7.700;2022-12-10T08:43:10;99776.22;;;1.76;95.17
40940;BME280;26666;50.156;7.700;2022-12-10T08:48:11;99780.34;;;1.94;95.62
40940;BME280;26666;50.156;7.700;2022-12-10T08:53:13;99783.06;;;2.07;93.48
40940;BME280;26666;50.156;7.700;2022-12-10T08:58:15;99789.56;;;2.00;92.26
40940;BME280;26666;50.156;7.700;2022-12-10T09:03:18;99794.22;;;1.95;93.51
40940;BME280;26666;50.156;7.700;2022-12-10T09:08:20;99793.19;;;1.97;93.07
40940;BME280;26666;50.156;7.700;2022-12-10T09:13:21;99804.13;;;2.19;94.42
40940;BME280;26666;50.156;7.700;2022-12-10T09:18:23;99814.19;;;2.25;94.13
40940;BME280;26666;50.156;7.700;2022-12-10T09:23:25;99807.50;;;2.49;93.30
40940;BME280;26666;50.156;7.700;2022-12-10T09:28:26;99816.44;;;2.45;92.62
40940;BME280;26666;50.156;7.700;2022-12-10T09:33:28;99811.13;;;2.61;91.16
40940;BME280;26666;50.156;7.700;2022-12-10T09:38:30;99810.72;;;2.96;90.24
40940;BME280;26666;50.156;7.700;2022-12-10T09:43:47;99803.53;;;3.00;88.52
40940;BME280;26666;50.156;7.700;2022-12-10T09:53:57;99806.13;;;3.14;87.83
40940;BME280;26666;50.156;7.700;2022-12-10T09:59:06;99803.69;;;3.11;88.04
40940;BME280;26666;50.156;7.700;2022-12-10T10:04:13;99796.41;;;3.43;86.91
40940;BME280;26666;50.156;7.700;2022-12-10T10:09:15;99799.84;;;3.44;86.18
40940;BME280;26666;50.156;7.700;2022-12-10T10:14:24;99803.09;;;3.74;86.76
40940;BME280;26666;50.156;7.700;2022-12-10T10:19:31;99808.00;;;3.79;83.59
40940;BME280;26666;50.156;7.700;2022-12-10T10:24:36;99797.31;;;3.69;83.20
40940;BME280;26666;50.156;7.700;2022-12-10T10:29:38;99798.56;;;3.36;82.04
40940;BME280;26666;50.156;7.700;2022-12-10T10:34:40;99801.72;;;3.42;81.97
40940;BME280;26666;50.156;7.700;2022-12-10T10:39:47;99798.88;;;3.59;81.52
40940;BME280;26666;50.156;7.700;2022-12-10T10:44:50;99792.56;;;3.49;80.56
40940;BME280;26666;50.156;7.700;2022-12-10T10:49:51;99806.09;;;3.68;80.90
40940;BME280;26666;50.156;7.700;2022-12-10T10:54:53;99809.25;;;3.46;80.12
40940;BME280;26666;50.156;7.700;2022-12-10T11:00:01;99807.59;;;3.18;80.21
40940;BME280;26666;50.156;7.700;2022-12-10T11:10:23;99812.34;;;3.26;80.36
40940;BME280;26666;50.156;7.700;2022-12-10T11:15:31;99808.34;;;3.47;80.77
40940;BME280;26666;50.156;7.700;2022-12-10T11:20:34;99814.44;;;3.33;80.54
40940;BME280;26666;50.156;7.700;2022-12-10T11:42:25;99804.81;;;3.48;80.24
40940;BME280;26666;50.156;7.700;2022-12-10T11:47:46;99807.66;;;3.58;81.49
40940;BME280;26666;50.156;7.700;2022-12-10T11:52:59;99815.00;;;3.39;81.54
40940;BME280;26666;50.156;7.700;2022-12-10T12:09:04;99822.28;;;3.33;80.30
40940;BME280;26666;50.156;7.700;2022-12-10T12:14:19;99819.28;;;3.40;83.16
40940;BME280;26666;50.156;7.700;2022-12-10T12:19:31;99822.88;;;3.51;80.56
40940;BME280;26666;50.156;7.700;2022-12-10T12:24:36;99816.72;;;3.52;80.07
40940;BME280;26666;50.156;7.700;2022-12-10T12:29:56;99831.19;;;3.44;80.01
40940;BME280;26666;50.156;7.700;2022-12-10T12:35:02;99820.56;;;3.47;80.02
40940;BME280;26666;50.156;7.700;2022-12-10T12:40:28;99822.69;;;3.27;79.54
40940;BME280;26666;50.156;7.700;2022-12-10T12:45:51;99838.13;;;3.45;80.42
40940;BME280;26666;50.156;7.700;2022-12-10T12:50:59;99839.44;;;3.38;79.46
40940;BME280;26666;50.156;7.700;2022-12-10T13:12:32;99840.22;;;3.52;80.33
40940;BME280;26666;50.156;7.700;2022-12-10T13:18:19;99835.53;;;3.30;79.85
40940;BME280;26666;50.156;7.700;2022-12-10T13:39:21;99862.41;;;3.18;79.64
40940;BME280;26666;50.156;7.700;2022-12-10T13:49:54;99864.50;;;2.99;79.84
40940;BME280;26666;50.156;7.700;2022-12-10T13:55:20;99869.00;;;3.38;78.80
40940;BME280;26666;50.156;7.700;2022-12-10T14:00:28;99876.31;;;3.19;79.32
40940;BME280;26666;50.156;7.700;2022-12-10T14:05:39;99887.03;;;3.14;80.48
40940;BME280;26666;50.156;7.700;2022-12-10T14:10:44;99893.34;;;3.24;79.61
40940;BME280;26666;50.156;7.700;2022-12-10T14:15:58;99897.28;;;3.17;78.61
40940;BME280;26666;50.156;7.700;2022-12-10T14:21:05;99905.28;;;3.28;79.90
40940;BME280;26666;50.156;7.700;2022-12-10T14:26:12;99912.47;;;3.25;79.74
40940;BME280;26666;50.156;7.700;2022-12-10T14:31:20;99910.88;;;3.36;78.63
40940;BME280;26666;50.156;7.700;2022-12-10T14:36:31;99913.22;;;3.41;79.58
40940;BME280;26666;50.156;7.700;2022-12-10T14:41:34;99914.81;;;3.29;78.79
40940;BME280;26666;50.156;7.700;2022-12-10T14:46:41;99928.41;;;3.34;78.51
40940;BME280;26666;50.156;7.700;2022-12-10T14:51:43;99925.81;;;3.20;77.65
40940;BME280;26666;50.156;7.700;2022-12-10T14:56:44;99915.94;;;2.96;78.53
40940;BME280;26666;50.156;7.700;2022-12-10T15:01:49;99924.69;;;2.95;78.92
40940;BME280;26666;50.156;7.700;2022-12-10T15:06:59;99928.59;;;3.17;80.05
40940;BME280;26666;50.156;7.700;2022-12-10T15:12:03;99925.53;;;3.10;79.45
40940;BME280;26666;50.156;7.700;2022-12-10T15:17:04;99932.94;;;3.04;77.95
40940;BME280;26666;50.156;7.700;2022-12-10T15:22:28;99931.34;;;2.87;77.47
40940;BME280;26666;50.156;7.700;2022-12-10T15:27:37;99932.53;;;2.81;78.96
40940;BME280;26666;50.156;7.700;2022-12-10T15:32:38;99932.72;;;2.78;77.89
40940;BME280;26666;50.156;7.700;2022-12-10T15:37:40;99932.63;;;2.65;79.54
40940;BME280;26666;50.156;7.700;2022-12-10T15:42:44;99937.56;;;2.70;79.86
40940;BME280;26666;50.156;7.700;2022-12-10T15:47:45;99939.03;;;2.60;79.44
40940;BME280;26666;50.156;7.700;2022-12-10T15:52:47;99938.28;;;2.72;82.77
40940;BME280;26666;50.156;7.700;2022-12-10T15:57:49;99944.63;;;2.68;82.60
40940;BME280;26666;50.156;7.700;2022-12-10T16:02:56;99941.06;;;2.54;83.88
40940;BME280;26666;50.156;7.700;2022-12-10T16:08:22;99935.16;;;2.36;84.08
40940;BME280;26666;50.156;7.700;2022-12-10T16:13:25;99937.97;;;2.17;84.61
40940;BME280;26666;50.156;7.700;2022-12-10T16:18:28;99944.81;;;2.04;84.55
40940;BME280;26666;50.156;7.700;2022-12-10T16:23:35;99950.66;;;1.93;85.18
40940;BME280;26666;50.156;7.700;2022-12-10T16:28:37;99954.44;;;1.88;86.20
40940;BME280;26666;50.156;7.700;2022-12-10T16:33:39;99958.81;;;1.87;85.61
40940;BME280;26666;50.156;7.700;2022-12-10T16:38:40;99968.56;;;1.84;86.32
40940;BME280;26666;50.156;7.700;2022-12-10T16:43:41;99968.97;;;1.76;87.22
40940;BME280;26666;50.156;7.700;2022-12-10T16:48:43;99965.28;;;1.64;87.07
40940;BME280;26666;50.156;7.700;2022-12-10T16:53:45;99964.94;;;1.54;87.42
40940;BME280;26666;50.156;7.700;2022-12-10T16:58:46;99965.72;;;1.56;87.37
40940;BME280;26666;50.156;7.700;2022-12-10T17:03:49;99969.22;;;1.40;87.75
40940;BME280;26666;50.156;7.700;2022-12-10T17:08:51;99970.56;;;1.31;86.88
40940;BME280;26666;50.156;7.700;2022-12-10T17:13:52;99969.88;;;1.27;87.02
40940;BME280;26666;50.156;7.700;2022-12-10T17:18:54;99970.34;;;1.18;86.59
40940;BME280;26666;50.156;7.700;2022-12-10T17:23:56;99978.75;;;1.07;87.22
40940;BME280;26666;50.156;7.700;2022-12-10T17:29:02;99978.63;;;1.09;87.15
40940;BME280;26666;50.156;7.700;2022-12-10T17:34:06;99990.38;;;1.00;87.45
40940;BME280;26666;50.156;7.700;2022-12-10T17:39:13;99989.69;;;0.96;87.04
40940;BME280;26666;50.156;7.700;2022-12-10T17:44:22;99994.22;;;0.93;87.22
40940;BME280;26666;50.156;7.700;2022-12-10T17:49:23;99993.25;;;0.78;88.05
40940;BME280;26666;50.156;7.700;2022-12-10T17:54:25;99993.84;;;0.66;87.77
40940;BME280;26666;50.156;7.700;2022-12-10T17:59:26;99991.78;;;0.72;87.85
40940;BME280;26666;50.156;7.700;2022-12-10T18:04:28;100000.19;;;0.60;87.13
40940;BME280;26666;50.156;7.700;2022-12-10T18:09:29;99991.50;;;0.61;87.47
40940;BME280;26666;50.156;7.700;2022-12-10T18:14:31;99997.13;;;0.34;88.31
40940;BME280;26666;50.156;7.700;2022-12-10T18:19:32;100000.13;;;0.44;87.67
40940;BME280;26666;50.156;7.700;2022-12-10T18:24:34;100008.09;;;0.41;87.84
40940;BME280;26666;50.156;7.700;2022-12-10T18:29:36;100011.44;;;0.43;87.88
40940;BME280;26666;50.156;7.700;2022-12-10T18:34:38;100014.03;;;0.43;87.51
40940;BME280;26666;50.156;7.700;2022-12-10T18:39:39;100019.50;;;0.37;87.79
40940;BME280;26666;50.156;7.700;2022-12-10T18:44:41;100004.03;;;0.35;87.09
40940;BME280;26666;50.156;7.700;2022-12-10T18:49:42;100006.69;;;0.34;88.62
40940;BME280;26666;50.156;7.700;2022-12-10T18:54:44;100014.47;;;0.34;87.71
40940;BME280;26666;50.156;7.700;2022-12-10T18:59:45;100018.22;;;0.28;88.66
40940;BME280;26666;50.156;7.700;2022-12-10T19:04:47;100022.78;;;0.23;88.96
40940;BME280;26666;50.156;7.700;2022-12-10T19:09:48;100023.03;;;0.36;89.23
40940;BME280;26666;50.156;7.700;2022-12-10T19:14:49;100023.75;;;0.39;88.56
40940;BME280;26666;50.156;7.700;2022-12-10T19:19:51;100022.81;;;0.41;88.63
40940;BME280;26666;50.156;7.700;2022-12-10T19:24:53;100029.16;;;0.52;88.70
40940;BME280;26666;50.156;7.700;2022-12-10T19:29:54;100035.75;;;0.42;89.30
40940;BME280;26666;50.156;7.700;2022-12-10T19:34:55;100021.47;;;0.51;89.45
40940;BME280;26666;50.156;7.700;2022-12-10T19:39:57;100027.03;;;0.43;88.81
40940;BME280;26666;50.156;7.700;2022-12-10T19:44:58;100021.72;;;0.10;90.75
40940;BME280;26666;50.156;7.700;2022-12-10T19:50:00;100023.81;;;0.38;90.63
40940;BME280;26666;50.156;7.700;2022-12-10T19:55:02;100027.41;;;0.35;90.24
40940;BME280;26666;50.156;7.700;2022-12-10T20:00:11;100020.81;;;0.28;90.83
40940;BME280;26666;50.156;7.700;2022-12-10T20:05:24;100019.69;;;0.51;90.63
40940;BME280;26666;50.156;7.700;2022-12-10T20:10:44;100018.63;;;0.73;89.87
40940;BME280;26666;50.156;7.700;2022-12-10T20:15:49;100013.88;;;0.81;89.77
40940;BME280;26666;50.156;7.700;2022-12-10T20:20:57;100024.59;;;0.57;90.24
40940;BME280;26666;50.156;7.700;2022-12-10T20:26:25;100022.50;;;0.47;90.28
40940;BME280;26666;50.156;7.700;2022-12-10T20:31:29;100027.63;;;0.48;91.09
40940;BME280;26666;50.156;7.700;2022-12-10T20:36:38;100033.09;;;0.61;89.88
40940;BME280;26666;50.156;7.700;2022-12-10T20:41:48;100038.34;;;0.59;90.10
40940;BME280;26666;50.156;7.700;2022-12-10T20:46:59;100041.09;;;0.74;90.06
40940;BME280;26666;50.156;7.700;2022-12-10T20:52:18;100034.31;;;0.54;89.94
40940;BME280;26666;50.156;7.700;2022-12-10T20:57:25;100019.47;;;0.73;90.42
40940;BME280;26666;50.156;7.700;2022-12-10T21:02:36;100027.66;;;0.66;91.14
40940;BME280;26666;50.156;7.700;2022-12-10T21:07:42;100031.09;;;0.84;88.25
40940;BME280;26666;50.156;7.700;2022-12-10T21:12:47;100019.06;;;0.98;89.15
40940;BME280;26666;50.156;7.700;2022-12-10T21:17:49;100028.91;;;0.76;91.11
40940;BME280;26666;50.156;7.700;2022-12-10T21:22:51;100021.28;;;1.06;88.99
40940;BME280;26666;50.156;7.700;2022-12-10T21:27:52;100020.06;;;0.96;90.23
40940;BME280;26666;50.156;7.700;2022-12-10T21:32:54;100012.03;;;1.01;88.10
40940;BME280;26666;50.156;7.700;2022-12-10T21:37:55;100006.84;;;0.83;91.13
40940;BME280;26666;50.156;7.700;2022-12-10T21:42:57;100002.31;;;0.87;89.90
40940;BME280;26666;50.156;7.700;2022-12-10T21:47:59;99991.69;;;0.91;90.40
40940;BME280;26666;50.156;7.700;2022-12-10T21:53:02;99986.34;;;0.59;91.11
40940;BME280;26666;50.156;7.700;2022-12-10T21:58:04;99987.03;;;0.81;92.33
40940;BME280;26666;50.156;7.700;2022-12-10T22:03:06;99984.19;;;0.85;90.19
40940;BME280;26666;50.156;7.700;2022-12-10T22:08:08;99984.59;;;0.43;91.98
40940;BME280;26666;50.156;7.700;2022-12-10T22:13:10;99987.88;;;0.64;91.98
40940;BME280;26666;50.156;7.700;2022-12-10T22:18:12;100001.72;;;0.47;92.40
40940;BME280;26666;50.156;7.700;2022-12-10T22:23:14;99988.25;;;0.73;91.50
40940;BME280;26666;50.156;7.700;2022-12-10T22:28:16;99993.25;;;0.61;91.39
40940;BME280;26666;50.156;7.700;2022-12-10T22:33:17;99997.59;;;0.60;91.69
40940;BME280;26666;50.156;7.700;2022-12-10T22:38:19;99994.91;;;0.44;92.65
40940;BME280;26666;50.156;7.700;2022-12-10T22:43:20;99992.63;;;0.55;92.84
40940;BME280;26666;50.156;7.700;2022-12-10T22:48:42;99989.13;;;0.56;91.70
40940;BME280;26666;50.156;7.700;2022-12-10T22:53:43;99990.09;;;0.36;92.94
40940;BME280;26666;50.156;7.700;2022-12-10T22:58:45;99988.81;;;0.63;92.07
40940;BME280;26666;50.156;7.700;2022-12-10T23:03:51;100000.19;;;0.43;91.73
40940;BME280;26666;50.156;7.700;2022-12-10T23:08:53;99995.84;;;0.43;93.23
40940;BME280;26666;50.156;7.700;2022-12-10T23:13:54;99998.25;;;0.29;93.22
40940;BME280;26666;50.156;7.700;2022-12-10T23:18:56;99986.53;;;0.56;93.40
40940;BME280;26666;50.156;7.700;2022-12-10T23:23:57;99983.63;;;0.63;92.11
40940;BME280;26666;50.156;7.700;2022-12-10T23:28:59;99987.50;;;0.71;91.90
40940;BME280;26666;50.156;7.700;2022-12-10T23:34:00;99977.78;;;0.75;91.82
40940;BME280;26666;50.156;7.700;2022-12-10T23:39:02;99986.09;;;0.82;91.21
40940;BME280;26666;50.156;7.700;2022-12-10T23:44:03;99969.59;;;0.65;90.69
40940;BME280;26666;50.156;7.700;2022-12-10T23:49:05;99974.56;;;0.52;91.64
40940;BME280;26666;50.156;7.700;2022-12-10T23:54:07;99974.50;;;0.36;92.21
40940;BME280;26666;50.156;7.700;2022-12-10T23:59:08;99971.50;;;0.27;91.55
